首页
METAR-TAF:

METAR-TAF

机场 :

红鹿, 艾伯塔, 加拿大

纬度: 52-11N, 经度: 113-54W, 海拔: 905米

当前天气观测

该预报发布于1小时和0分钟前的04:00 UTC
风速6节,风向
温度 10°C
湿度 53%
气压 1004 hPa
能見度: 14.5公里
散云层高于7600英尺

METAR: CYQF 250400Z AUTO 10006KT 9SM SCT076 10/01 A2966 RMK SLP064 DENSITY ALT 3400FT

时间: 23:00 (05:00 UTC)

预报

该预报发布于5小时和20分钟前的23:40 UTC
预报有效从25日的 00点(UTC)到 25日的 12点(UTC)
风速7节,风向
能見度: 10公里
散云层高于6000英尺
成为
从 25日的 02点(UTC)到 25日的 04点(UTC)
风速6节,风向南转南东
从 25日的 0600点(UTC)
风速5节,风向东北
能見度: 10公里
多云层高于5000英尺
短暂存在
从 25日的 06点(UTC)到 25日的 12点(UTC)
能見度: 10公里
小阵雨

TAF: CYQF 242340Z 2500/2512 10007KT P6SM SCT060 BECMG 2502/2504 16006KT FM250600 05005KT P6SM BKN050 TEMPO 2506/2512 P6SM -SHRA RMK FCST BASED ON AUTO OBS. NXT FCST BY 250600Z

超过4000个机场的气象观测和天气预报(METAR&TAF报告)。

可查询的气象台以黄色和红色小点在地图上表示。

将鼠标移到小点上方,可查看气象台名称。

然后点击查看天气观测和预报。

如需切换地图:点击带黑十字的绿色按钮放大地图;点击带横线的绿色按钮缩小地图;或者点击绿色箭头查看邻近地区的地图。


METAR-TAF: